createdAt,value
2017-10-24T00:04:40.077Z,11.38
2017-10-24T00:07:08.942Z,12.80
2017-10-24T00:09:37.783Z,12.05
2017-10-24T00:12:06.646Z,14.15
2017-10-24T00:14:36.510Z,18.08
2017-10-24T00:17:05.404Z,12.35
2017-10-24T00:19:34.266Z,12.30
2017-10-24T00:22:03.110Z,14.68
2017-10-24T00:24:32.772Z,14.30
2017-10-24T00:27:01.635Z,11.65
2017-10-24T00:29:30.518Z,13.80
2017-10-24T00:31:59.409Z,12.25
2017-10-24T00:34:29.221Z,16.87
2017-10-24T00:37:00.674Z,12.07
2017-10-24T00:39:29.578Z,15.88
2017-10-24T00:41:58.465Z,11.55
2017-10-24T00:44:27.377Z,12.70
2017-10-24T00:46:56.249Z,12.50
2017-10-24T00:49:25.122Z,15.85
2017-10-24T00:51:55.686Z,15.02
2017-10-24T00:54:24.544Z,14.55
2017-10-24T00:56:53.859Z,17.15
2017-10-24T00:59:22.021Z,14.55
2017-10-24T01:01:51.317Z,11.82
2017-10-24T01:04:20.171Z,10.90
2017-10-24T01:06:49.046Z,14.68
2017-10-24T01:09:17.899Z,13.48
2017-10-24T01:11:47.558Z,15.82
2017-10-24T01:14:16.415Z,15.85
2017-10-24T01:16:45.279Z,15.70
2017-10-24T01:19:14.562Z,16.52
2017-10-24T01:21:43.252Z,14.52
2017-10-24T01:24:12.600Z,14.60
2017-10-24T01:26:40.950Z,15.25
2017-10-24T01:29:10.229Z,15.73
2017-10-24T01:31:38.894Z,13.15
2017-10-24T01:34:07.772Z,18.30
2017-10-24T01:36:35.961Z,16.25
2017-10-24T01:39:05.231Z,24.98
2017-10-24T01:41:33.419Z,15.88
2017-10-24T01:44:01.653Z,16.75
2017-10-24T01:46:29.823Z,19.20
2017-10-24T01:48:58.515Z,16.10
2017-10-24T01:51:27.809Z,17.37
2017-10-24T01:53:56.985Z,13.65
2017-10-24T01:56:25.495Z,19.83
2017-10-24T01:58:54.770Z,20.12
2017-10-24T02:01:22.919Z,21.08
2017-10-24T02:03:51.439Z,22.73
2017-10-24T02:06:20.496Z,21.50
2017-10-24T02:08:48.662Z,19.30
2017-10-24T02:11:17.174Z,17.10
2017-10-24T02:13:45.728Z,22.05
2017-10-24T02:16:13.917Z,21.73
2017-10-24T02:18:42.113Z,19.77
2017-10-24T02:21:10.626Z,22.98
2017-10-24T02:23:40.260Z,18.33
2017-10-24T02:26:09.114Z,18.65
2017-10-24T02:28:37.971Z,17.58
2017-10-24T02:31:06.836Z,21.02
2017-10-24T02:33:36.279Z,21.10
2017-10-24T02:36:05.143Z,23.10
2017-10-24T02:38:34.005Z,21.87
2017-10-24T02:41:03.628Z,24.77
2017-10-24T02:43:32.495Z,20.80
2017-10-24T02:46:02.125Z,26.37
2017-10-24T02:48:30.991Z,22.77
2017-10-24T02:50:59.963Z,17.27
2017-10-24T02:53:28.867Z,20.62
2017-10-24T02:55:59.027Z,22.30
2017-10-24T02:58:29.822Z,19.30
2017-10-24T03:00:58.684Z,28.42
2017-10-24T03:03:27.537Z,32.53
2017-10-24T03:05:57.647Z,19.62
2017-10-24T03:08:27.279Z,23.50
2017-10-24T03:10:55.791Z,23.23
2017-10-24T03:13:24.641Z,24.83
2017-10-24T03:15:53.490Z,21.37
2017-10-24T03:18:23.219Z,22.80
2017-10-24T03:20:52.159Z,23.02
2017-10-24T03:23:21.011Z,19.98
2017-10-24T03:25:49.868Z,18.95
2017-10-24T03:28:18.387Z,22.52
2017-10-24T03:30:47.992Z,19.98
2017-10-24T03:33:16.834Z,21.90
2017-10-24T03:35:45.699Z,20.45
2017-10-24T03:38:14.554Z,20.30
2017-10-24T03:40:43.416Z,19.10
2017-10-24T03:43:12.271Z,22.20
2017-10-24T03:45:41.963Z,19.08
2017-10-24T03:48:11.610Z,19.98
2017-10-24T03:50:40.476Z,17.05
2017-10-24T03:53:09.336Z,20.35
2017-10-24T03:55:38.200Z,19.58
2017-10-24T03:58:07.055Z,14.07
2017-10-24T04:00:35.919Z,19.17
2017-10-24T04:03:05.576Z,17.98
2017-10-24T04:05:34.283Z,17.52
2017-10-24T04:51:43.984Z,27.45
2017-10-24T04:54:14.228Z,20.27
2017-10-24T04:56:43.090Z,28.80
2017-10-24T04:59:13.415Z,27.10
2017-10-24T05:01:43.054Z,24.30
2017-10-24T05:04:13.239Z,27.92
2017-10-24T05:06:42.865Z,21.98
2017-10-24T05:09:11.735Z,29.58
2017-10-24T05:11:40.595Z,24.48
2017-10-24T05:14:10.923Z,26.33
2017-10-24T05:16:40.761Z,23.95
2017-10-24T05:19:09.329Z,27.00
2017-10-24T05:21:38.769Z,24.92
2017-10-24T05:24:08.398Z,26.17
2017-10-24T05:26:37.247Z,23.67
2017-10-24T05:29:06.013Z,24.00
2017-10-24T05:31:34.876Z,32.97
2017-10-24T05:34:03.736Z,37.80
2017-10-24T05:36:33.184Z,29.08
2017-10-24T05:39:02.806Z,43.45
2017-10-24T05:41:31.657Z,35.90
2017-10-24T05:44:00.826Z,41.90
2017-10-24T05:46:29.740Z,32.08
2017-10-24T05:48:59.377Z,32.67
2017-10-24T05:51:28.236Z,38.72
2017-10-24T05:53:57.847Z,34.55
2017-10-24T05:56:27.479Z,32.97
2017-10-24T05:58:56.372Z,30.62
2017-10-24T06:01:25.263Z,35.47
2017-10-24T06:03:54.127Z,40.70
2017-10-24T06:06:23.760Z,38.72
2017-10-24T06:08:59.682Z,35.30
2017-10-24T06:11:38.124Z,35.88
2017-10-24T06:17:59.772Z,43.87
2017-10-24T06:20:28.631Z,34.10
2017-10-24T06:22:57.757Z,35.40
2017-10-24T06:25:28.269Z,36.33
2017-10-24T06:27:57.904Z,38.20
2017-10-24T06:30:27.227Z,37.58
2017-10-24T06:32:56.090Z,37.10
2017-10-24T06:35:25.748Z,35.38
2017-10-24T06:37:54.165Z,31.77
2017-10-24T06:40:23.796Z,36.13
2017-10-24T06:42:53.460Z,41.50
2017-10-24T06:45:23.293Z,32.03
2017-10-24T06:47:52.926Z,35.13
2017-10-24T06:50:23.295Z,37.10
2017-10-24T06:52:53.287Z,30.17
2017-10-24T06:55:22.175Z,42.10
2017-10-24T06:57:52.081Z,35.45
2017-10-24T07:00:20.982Z,40.17
2017-10-24T07:02:50.338Z,34.78
2017-10-24T07:05:19.302Z,41.65
2017-10-24T07:07:47.975Z,33.28
2017-10-24T07:10:16.654Z,43.50
2017-10-24T07:12:46.953Z,32.35
2017-10-24T07:15:17.267Z,33.45
2017-10-24T07:17:45.975Z,42.20
2017-10-24T07:20:14.650Z,37.08
2017-10-24T07:22:45.328Z,40.28
2017-10-24T07:25:15.061Z,36.50
2017-10-24T07:27:44.724Z,39.60
2017-10-24T07:30:13.594Z,36.72
2017-10-24T07:32:43.234Z,35.42
2017-10-24T09:12:38.577Z,28.50
2017-10-24T09:18:05.151Z,28.12
2017-10-24T09:20:34.814Z,33.60
2017-10-24T09:23:05.625Z,25.77
2017-10-24T09:25:34.515Z,29.85
2017-10-24T09:28:08.982Z,28.25
2017-10-24T09:30:40.418Z,32.53
2017-10-24T09:33:09.838Z,32.78
2017-10-24T09:35:40.073Z,29.67
2017-10-24T09:38:08.970Z,26.15
2017-10-24T09:40:38.419Z,28.12
2017-10-24T09:43:07.096Z,37.30
2017-10-24T09:45:35.960Z,36.20
2017-10-24T09:48:04.802Z,31.25
2017-10-24T09:50:45.970Z,26.70
2017-10-24T09:53:14.880Z,24.50
2017-10-24T09:55:43.363Z,26.23
2017-10-24T09:58:11.553Z,27.17
2017-10-24T10:00:41.218Z,24.02
2017-10-24T10:03:10.446Z,27.85
2017-10-24T10:05:39.423Z,22.90
2017-10-24T10:08:08.312Z,34.80
2017-10-24T10:10:37.203Z,28.05
2017-10-24T10:13:07.699Z,27.95
2017-10-24T10:15:37.048Z,21.98
2017-10-24T10:18:07.003Z,20.52
2017-10-24T10:20:37.299Z,22.20
2017-10-24T10:23:06.048Z,23.95
2017-10-24T10:25:34.924Z,30.42
2017-10-24T10:28:04.556Z,20.17
2017-10-24T10:30:33.435Z,23.50
2017-10-24T10:33:03.062Z,20.37
2017-10-24T10:35:32.259Z,20.55
2017-10-24T10:38:01.146Z,17.23
2017-10-24T10:40:29.914Z,21.12
2017-10-24T10:42:59.570Z,17.42
2017-10-24T10:45:28.571Z,17.70
2017-10-24T10:47:57.801Z,18.40
2017-10-24T10:50:26.689Z,21.73
2017-10-24T10:52:55.562Z,19.00
2017-10-24T10:55:24.423Z,22.90
2017-10-24T10:57:53.275Z,12.07
2017-10-24T11:00:21.544Z,12.20
2017-10-24T11:02:52.291Z,16.12
2017-10-24T11:05:21.921Z,12.80
2017-10-24T11:07:51.603Z,12.80
2017-10-24T11:10:20.584Z,13.90
2017-10-24T11:12:50.684Z,13.85
2017-10-24T11:15:19.424Z,13.65
2017-10-24T11:17:49.879Z,9.55
2017-10-24T11:20:19.814Z,15.48
2017-10-24T11:22:49.701Z,17.15
2017-10-24T11:25:20.979Z,15.77
2017-10-24T11:27:50.323Z,12.18
2017-10-24T11:30:20.539Z,14.27
2017-10-24T11:32:49.964Z,13.40
2017-10-24T11:35:21.709Z,12.75
2017-10-24T11:37:51.063Z,10.07
2017-10-24T11:40:20.052Z,9.82
2017-10-24T11:42:49.746Z,13.05
2017-10-24T11:45:18.601Z,11.10
2017-10-24T11:47:48.198Z,9.20
2017-10-24T11:50:17.060Z,13.35
2017-10-24T11:52:45.750Z,9.23
2017-10-24T11:55:15.537Z,10.93
2017-10-24T11:57:44.389Z,12.13
2017-10-24T12:00:14.150Z,12.52
2017-10-24T12:02:51.724Z,10.18
2017-10-24T12:05:20.793Z,10.50
2017-10-24T12:07:50.023Z,15.88
2017-10-24T12:10:20.280Z,10.70
2017-10-24T12:12:49.487Z,13.88
2017-10-24T12:15:19.213Z,13.13
2017-10-24T12:17:48.104Z,10.35
2017-10-24T12:20:16.967Z,12.05
2017-10-24T12:22:46.679Z,9.68
2017-10-24T12:25:16.310Z,12.55
2017-10-24T12:27:45.179Z,13.02
2017-10-24T12:30:14.042Z,14.73
2017-10-24T12:32:42.440Z,12.25
2017-10-24T12:35:11.958Z,10.35
2017-10-24T12:40:36.458Z,13.13
2017-10-24T12:43:05.979Z,13.70
2017-10-24T12:45:34.373Z,10.88
2017-10-24T12:48:03.581Z,13.35
2017-10-24T12:53:14.702Z,9.02
2017-10-24T12:55:43.391Z,11.73
2017-10-24T12:58:17.029Z,13.05
2017-10-24T13:00:47.139Z,12.13
2017-10-24T13:03:15.820Z,10.20
2017-10-24T13:05:44.172Z,11.02
2017-10-24T13:08:16.302Z,12.60
2017-10-24T13:10:44.303Z,10.68
2017-10-24T13:13:12.981Z,8.90
2017-10-24T13:15:41.652Z,13.10
2017-10-24T13:18:11.833Z,16.67
2017-10-24T13:20:41.695Z,10.85
2017-10-24T13:23:11.172Z,12.13
2017-10-24T13:25:40.035Z,6.68
2017-10-24T13:28:09.412Z,7.47
2017-10-24T13:30:38.283Z,8.88
2017-10-24T13:33:07.164Z,8.48
2017-10-24T13:35:36.011Z,7.78
2017-10-24T13:38:06.360Z,7.32
2017-10-24T13:40:36.016Z,8.13
2017-10-24T13:43:05.083Z,12.25
2017-10-24T13:45:33.963Z,6.60
2017-10-24T13:48:04.710Z,7.45
2017-10-24T13:50:34.095Z,8.45
2017-10-24T13:53:03.381Z,11.52
2017-10-24T13:55:31.963Z,12.75
2017-10-24T13:58:01.706Z,9.52
2017-10-24T14:00:31.659Z,6.93
2017-10-24T14:03:04.271Z,7.65
2017-10-24T14:05:38.686Z,6.70
2017-10-24T14:08:13.863Z,6.75
2017-10-24T14:10:44.257Z,8.77
2017-10-24T14:13:13.779Z,9.73
2017-10-24T14:15:42.641Z,9.27
2017-10-24T14:18:13.176Z,8.13
2017-10-24T14:20:42.048Z,11.15
2017-10-24T14:23:10.903Z,8.15
2017-10-24T14:25:39.767Z,7.95
2017-10-24T14:28:08.615Z,9.80
2017-10-24T14:30:37.471Z,7.40
2017-10-24T14:33:06.329Z,7.65
2017-10-24T14:35:35.173Z,7.15
2017-10-24T14:38:04.011Z,4.80
2017-10-24T14:40:32.878Z,9.20
2017-10-24T14:43:01.807Z,5.65
2017-10-24T14:45:30.666Z,6.50
2017-10-24T14:48:00.215Z,8.63
2017-10-24T14:50:29.073Z,6.87
2017-10-24T14:52:58.692Z,6.70
2017-10-24T14:55:27.556Z,6.95
2017-10-24T14:57:56.406Z,7.47
2017-10-24T15:00:25.279Z,10.57
2017-10-24T15:02:54.141Z,6.40
2017-10-24T15:05:22.979Z,6.90
2017-10-24T15:07:51.819Z,5.30
2017-10-24T15:10:21.549Z,15.80
2017-10-24T15:12:50.434Z,8.35
2017-10-24T15:15:20.131Z,7.82
2017-10-24T15:17:48.984Z,5.50
2017-10-24T15:20:17.852Z,7.72
2017-10-24T15:22:46.688Z,7.75
2017-10-24T15:25:16.355Z,7.22
2017-10-24T15:27:45.204Z,10.43
2017-10-24T15:30:14.830Z,7.62
2017-10-24T15:32:44.560Z,6.12
2017-10-24T15:35:13.423Z,6.75
2017-10-24T15:37:43.031Z,7.78
2017-10-24T15:40:13.065Z,7.05
2017-10-24T15:42:41.909Z,7.87
2017-10-24T15:45:10.773Z,6.72
2017-10-24T15:47:39.609Z,7.40
2017-10-24T15:50:08.459Z,5.72
2017-10-24T15:52:38.641Z,7.25
2017-10-24T15:55:07.500Z,5.25
2017-10-24T15:57:36.352Z,6.22
2017-10-24T16:00:05.276Z,13.93
2017-10-24T16:02:35.103Z,11.63
2017-10-24T16:05:03.603Z,11.65
2017-10-24T16:07:32.516Z,14.45
2017-10-24T16:10:01.360Z,7.85
2017-10-24T16:12:30.221Z,8.65
2017-10-24T16:14:59.624Z,9.63
2017-10-24T16:17:28.467Z,7.60
2017-10-24T16:19:58.080Z,9.95
2017-10-24T16:22:27.703Z,9.85
2017-10-24T16:35:29.974Z,6.03
2017-10-24T16:37:58.826Z,6.62
2017-10-24T16:40:28.438Z,8.13
2017-10-24T16:42:58.962Z,11.25
2017-10-24T16:45:28.573Z,6.87
2017-10-24T16:47:57.430Z,11.12
2017-10-24T16:50:26.279Z,10.05
2017-10-24T16:52:55.139Z,10.40
2017-10-24T16:55:24.768Z,9.25
2017-10-24T16:57:53.628Z,6.78
2017-10-24T17:00:22.499Z,8.40
2017-10-24T17:02:51.346Z,9.45
2017-10-24T17:05:21.000Z,11.10
2017-10-24T17:07:49.851Z,8.20
2017-10-24T17:10:18.449Z,10.35
2017-10-24T17:12:52.364Z,9.25
2017-10-24T17:15:25.036Z,13.90
2017-10-24T17:17:53.947Z,10.15
2017-10-24T17:20:22.852Z,11.50
2017-10-24T17:22:51.972Z,9.52
2017-10-24T17:25:22.466Z,16.77
2017-10-24T17:27:51.347Z,9.15
2017-10-24T17:30:20.209Z,9.05
2017-10-24T17:32:49.055Z,8.88
2017-10-24T17:35:17.910Z,10.70
2017-10-24T17:37:46.799Z,15.35
2017-10-24T17:40:15.649Z,10.18
2017-10-24T17:42:46.132Z,14.60
2017-10-24T17:45:15.004Z,14.93
2017-10-24T17:47:43.867Z,10.98
2017-10-24T17:50:13.502Z,9.30
2017-10-24T17:52:42.656Z,10.40
2017-10-24T17:55:11.523Z,9.10
2017-10-24T17:57:40.374Z,10.23
2017-10-24T18:00:09.260Z,14.05
2017-10-24T18:02:39.226Z,8.93
2017-10-24T18:05:08.277Z,10.70
2017-10-24T18:07:37.144Z,12.73
2017-10-24T18:10:06.499Z,11.00
2017-10-24T18:12:35.370Z,10.63
2017-10-24T18:15:04.433Z,14.00
2017-10-24T18:17:34.732Z,10.63
2017-10-24T18:20:03.395Z,13.38
2017-10-24T18:22:32.248Z,13.07
2017-10-24T18:25:01.907Z,16.48
2017-10-24T18:27:31.416Z,15.68
2017-10-24T18:30:02.783Z,13.75
2017-10-24T18:32:31.646Z,12.85
2017-10-24T18:35:00.961Z,10.70
2017-10-24T18:37:29.814Z,9.90
2017-10-24T18:39:58.668Z,11.95
2017-10-24T18:42:27.528Z,12.50
2017-10-24T18:44:56.407Z,10.52
2017-10-24T18:47:25.100Z,15.98
2017-10-24T18:49:53.986Z,12.77
2017-10-24T18:52:23.142Z,9.48
2017-10-24T18:54:52.586Z,15.25
2017-10-24T18:57:21.777Z,11.70
2017-10-24T18:59:51.078Z,10.52
2017-10-24T19:02:19.767Z,11.77
2017-10-24T19:04:48.452Z,17.73
2017-10-24T19:07:17.980Z,11.00
2017-10-24T19:09:46.899Z,16.08
2017-10-24T19:12:15.972Z,10.13
2017-10-24T19:14:44.826Z,9.82
2017-10-24T19:17:13.687Z,12.20
2017-10-24T19:19:42.532Z,8.98
2017-10-24T19:22:12.359Z,9.18
2017-10-24T19:24:41.250Z,10.80
2017-10-24T19:27:11.316Z,10.65
2017-10-24T19:29:40.950Z,9.65
2017-10-24T19:32:09.822Z,9.90
2017-10-24T19:34:41.169Z,13.88
2017-10-24T19:37:12.682Z,7.70
2017-10-24T19:39:41.802Z,6.85
2017-10-24T19:42:11.252Z,8.32
2017-10-24T19:44:41.158Z,12.82
2017-10-24T19:47:10.308Z,11.38
2017-10-24T19:49:39.147Z,9.82
2017-10-24T19:52:08.006Z,20.12
2017-10-24T19:54:39.132Z,10.52
2017-10-24T19:57:10.195Z,6.97
2017-10-24T19:59:39.400Z,12.52
2017-10-24T20:02:08.238Z,8.05
2017-10-24T20:04:37.136Z,7.22
2017-10-24T20:07:06.596Z,8.10
2017-10-24T20:09:35.470Z,7.95
2017-10-24T20:12:04.591Z,6.68
2017-10-24T20:14:35.242Z,12.68
2017-10-24T20:21:34.919Z,12.73
2017-10-24T20:24:03.433Z,10.35
2017-10-24T20:26:33.965Z,6.57
2017-10-24T20:29:04.370Z,9.82
2017-10-24T20:31:33.222Z,10.90
2017-10-24T20:34:07.006Z,6.40
2017-10-24T20:36:35.893Z,6.50
2017-10-24T20:39:05.106Z,16.12
2017-10-24T20:41:34.270Z,9.13
2017-10-24T20:44:03.107Z,5.93
2017-10-24T20:46:31.980Z,7.07
2017-10-24T20:49:00.558Z,7.30
2017-10-24T20:51:30.957Z,6.55
2017-10-24T20:54:01.034Z,4.75
2017-10-24T20:56:30.641Z,5.70
2017-10-24T20:58:59.489Z,6.62
2017-10-24T21:01:29.911Z,25.88
2017-10-24T21:03:59.514Z,9.93
2017-10-24T21:06:28.363Z,7.30
2017-10-24T21:08:57.209Z,6.93
2017-10-24T21:11:26.839Z,10.50
2017-10-24T21:13:56.272Z,5.45
2017-10-24T21:16:25.123Z,6.10
2017-10-24T21:18:53.983Z,7.43
2017-10-24T21:21:25.498Z,9.32
2017-10-24T21:23:54.362Z,6.40
2017-10-24T21:26:23.223Z,5.62
2017-10-24T21:28:52.845Z,8.02
2017-10-24T21:31:22.476Z,6.35
2017-10-24T21:33:51.314Z,9.02
2017-10-24T21:36:20.167Z,5.00
2017-10-24T21:38:48.826Z,8.93
2017-10-24T21:41:18.469Z,8.98
2017-10-24T21:43:47.360Z,8.23
2017-10-24T21:46:16.260Z,8.68
2017-10-24T21:48:45.114Z,6.95
2017-10-24T21:51:14.722Z,8.07
2017-10-24T21:53:44.358Z,5.18
2017-10-24T21:56:13.226Z,7.43
2017-10-24T21:58:42.867Z,5.62
2017-10-24T22:01:12.498Z,7.97
2017-10-24T22:03:41.350Z,7.47
2017-10-24T22:06:10.209Z,5.70
2017-10-24T22:08:39.823Z,6.97
2017-10-24T22:11:08.659Z,4.95
2017-10-24T22:13:37.523Z,4.90
2017-10-24T22:16:06.379Z,6.10
2017-10-24T22:18:35.047Z,6.37
2017-10-24T22:21:03.913Z,7.82
2017-10-24T22:23:32.762Z,5.20
2017-10-24T22:26:02.193Z,4.62
2017-10-24T22:28:30.845Z,4.95
2017-10-24T22:31:00.486Z,17.95
2017-10-24T22:33:29.331Z,5.28
2017-10-24T22:35:58.167Z,5.20
2017-10-24T22:38:27.006Z,6.70
2017-10-24T22:40:55.850Z,4.70
2017-10-24T22:43:24.684Z,4.45
2017-10-24T22:45:53.523Z,5.32
2017-10-24T22:48:22.358Z,4.55
2017-10-24T22:50:51.212Z,5.45
2017-10-24T22:53:20.053Z,5.75
2017-10-24T22:55:48.894Z,6.10
2017-10-24T22:58:17.742Z,7.30
2017-10-24T23:00:46.590Z,6.15
2017-10-24T23:03:15.441Z,7.45
2017-10-24T23:05:45.050Z,10.07
2017-10-24T23:08:14.799Z,9.80
2017-10-24T23:10:43.689Z,15.45
2017-10-24T23:13:12.534Z,9.70
2017-10-24T23:15:41.375Z,8.25
2017-10-24T23:18:10.997Z,10.15
2017-10-24T23:20:40.630Z,10.50
2017-10-24T23:23:09.496Z,12.77
2017-10-24T23:25:38.378Z,10.88
2017-10-24T23:28:07.558Z,15.20
2017-10-24T23:30:36.431Z,13.27
2017-10-24T23:33:05.296Z,12.52
2017-10-24T23:35:34.919Z,17.33
2017-10-24T23:38:04.586Z,15.43
2017-10-24T23:40:33.448Z,13.80
2017-10-24T23:43:02.297Z,16.87
2017-10-24T23:45:31.155Z,15.13
2017-10-24T23:48:00.019Z,16.98
2017-10-24T23:50:28.883Z,18.45
2017-10-24T23:52:58.520Z,16.83
2017-10-24T23:55:27.417Z,19.77
2017-10-24T23:57:56.275Z,23.70
